Time;durP1;ratioP1;P1;durP2;ratioP2;P2;SDS_P1;SDS_P2;PMS_P1;PMS_P2;Temp;Humidity;BMP_temperature;BMP_pressure;BME280_temperature;BME280_humidity;BME280_pressure;Samples;Min_cycle;Max_cycle;Signal;HPM_P1;HPM_P2
2022/07/25 00:01:10;;;;;;;9.20;7.73;;;26.30;59.80;;;;;;4994227;28;20459;-71
2022/07/25 00:03:37;;;;;;;7.80;7.10;;;26.30;60.00;;;;;;4994054;28;20484;-71
2022/07/25 00:06:04;;;;;;;8.30;7.50;;;26.20;60.10;;;;;;4994966;28;20805;-71
2022/07/25 00:08:30;;;;;;;8.60;6.87;;;26.20;60.10;;;;;;4994090;28;20494;-69
2022/07/25 00:10:57;;;;;;;8.33;7.57;;;26.20;60.00;;;;;;4993856;28;20455;-70
2022/07/25 00:13:24;;;;;;;8.57;7.63;;;26.20;60.00;;;;;;4994012;28;20447;-70
2022/07/25 00:15:52;;;;;;;8.13;7.33;;;26.20;60.00;;;;;;4994051;28;20444;-70
2022/07/25 00:18:19;;;;;;;9.83;8.30;;;26.10;60.00;;;;;;4997792;28;20472;-69
2022/07/25 00:20:46;;;;;;;8.90;8.10;;;26.10;60.00;;;;;;4997627;28;20467;-69
2022/07/25 00:23:13;;;;;;;8.30;7.43;;;26.00;60.30;;;;;;4997797;28;20448;-70
2022/07/25 00:25:40;;;;;;;8.80;7.77;;;26.00;60.50;;;;;;4997869;28;20437;-70
2022/07/25 00:28:07;;;;;;;7.90;7.10;;;25.90;60.60;;;;;;4997703;28;20474;-69
2022/07/25 00:30:33;;;;;;;9.17;7.63;;;25.90;60.90;;;;;;4997335;28;20946;-69
2022/07/25 00:33:01;;;;;;;9.13;7.23;;;25.90;61.10;;;;;;4997402;28;20539;-70
2022/07/25 00:35:28;;;;;;;9.53;7.97;;;25.90;61.10;;;;;;4997461;28;20461;-70
2022/07/25 00:37:55;;;;;;;11.17;7.77;;;25.80;61.20;;;;;;4997604;28;20455;-69
2022/07/25 00:40:22;;;;;;;8.00;7.20;;;25.80;61.20;;;;;;4997553;28;20454;-70
2022/07/25 00:42:49;;;;;;;7.30;6.70;;;25.80;61.40;;;;;;4997287;28;20946;-70
2022/07/25 00:45:15;;;;;;;11.43;7.97;;;25.80;61.60;;;;;;4997342;28;20476;-70
2022/07/25 00:47:42;;;;;;;8.10;7.30;;;25.70;61.70;;;;;;4997330;28;20455;-69
2022/07/25 00:50:10;;;;;;;8.33;7.57;;;25.60;61.80;;;;;;4997527;28;20471;-69
2022/07/25 00:52:37;;;;;;;8.67;7.80;;;25.60;60.60;;;;;;4997455;28;20456;-70
2022/07/25 00:55:05;;;;;;;8.47;7.77;;;25.60;60.90;;;;;;4997295;28;20467;-70
2022/07/25 00:57:32;;;;;;;8.33;7.53;;;25.50;61.40;;;;;;4996998;28;20797;-69
2022/07/25 00:59:59;;;;;;;10.60;7.37;;;25.40;61.00;;;;;;4997307;28;20474;-70
2022/07/25 01:02:26;;;;;;;17.73;8.07;;;25.40;61.70;;;;;;4996890;28;20455;-70
2022/07/25 01:04:53;;;;;;;10.90;7.70;;;25.30;61.10;;;;;;4996903;28;20480;-70
2022/07/25 01:07:22;;;;;;;9.57;7.20;;;25.30;61.00;;;;;;4996757;28;20920;-70
2022/07/25 01:09:49;;;;;;;7.73;7.03;;;25.30;61.00;;;;;;4997097;28;20468;-70
2022/07/25 01:12:15;;;;;;;11.50;7.67;;;25.20;60.30;;;;;;4996830;28;20476;-70
2022/07/25 01:14:42;;;;;;;7.57;6.93;;;25.30;59.70;;;;;;4996872;28;20444;-70
2022/07/25 01:17:09;;;;;;;8.20;7.40;;;25.20;60.30;;;;;;4996928;28;20452;-70
2022/07/25 01:19:35;;;;;;;10.10;7.07;;;25.30;60.30;;;;;;4996727;28;20464;-70
2022/07/25 01:22:04;;;;;;;8.80;7.13;;;25.30;60.70;;;;;;4996850;28;20451;-70
2022/07/25 01:24:31;;;;;;;8.40;7.20;;;25.20;60.40;;;;;;4996735;28;20508;-70
2022/07/25 01:26:57;;;;;;;7.87;7.03;;;25.20;60.20;;;;;;4996237;28;20892;-70
2022/07/25 01:29:24;;;;;;;10.50;7.90;;;25.20;60.50;;;;;;4996667;28;20470;-70
2022/07/25 01:31:51;;;;;;;9.00;8.10;;;25.20;60.50;;;;;;4996673;28;20455;-70
2022/07/25 01:34:18;;;;;;;7.27;6.57;;;25.10;59.90;;;;;;4996370;28;20452;-70
2022/07/25 01:36:44;;;;;;;8.83;7.30;;;25.20;60.00;;;;;;4996595;28;20448;-70
2022/07/25 01:39:12;;;;;;;7.90;7.23;;;25.20;59.70;;;;;;4996137;28;20977;-69
2022/07/25 01:41:39;;;;;;;7.43;6.80;;;25.20;59.40;;;;;;4996248;28;20817;-70
2022/07/25 01:44:06;;;;;;;8.30;6.60;;;25.20;59.60;;;;;;4996301;28;20480;-70
2022/07/25 01:46:33;;;;;;;7.13;6.53;;;25.10;59.80;;;;;;4996322;28;20447;-70
2022/07/25 01:49:00;;;;;;;7.10;6.40;;;25.20;59.70;;;;;;4995756;28;20940;-70
2022/07/25 01:51:26;;;;;;;7.23;6.30;;;25.20;59.30;;;;;;4996319;28;20459;-71
2022/07/25 01:53:53;;;;;;;7.50;6.80;;;25.20;59.60;;;;;;4996232;28;20445;-70
2022/07/25 01:56:21;;;;;;;9.57;7.90;;;25.10;59.70;;;;;;4996276;28;20823;-69
2022/07/25 01:58:48;;;;;;;7.30;6.57;;;25.10;60.70;;;;;;4995989;28;20476;-69
2022/07/25 02:01:14;;;;;;;7.47;6.57;;;25.00;61.50;;;;;;4996545;28;20448;-70
2022/07/25 02:03:41;;;;;;;6.77;6.17;;;24.90;61.80;;;;;;4995726;28;20451;-70
2022/07/25 02:06:08;;;;;;;8.50;7.70;;;24.90;62.10;;;;;;4995775;28;20938;-70
2022/07/25 02:08:35;;;;;;;8.43;6.67;;;24.90;62.50;;;;;;4995460;28;20483;-69
2022/07/25 02:11:02;;;;;;;11.67;7.30;;;24.90;62.50;;;;;;4995637;28;20456;-70
2022/07/25 02:13:30;;;;;;;7.43;6.73;;;24.90;62.00;;;;;;4994580;28;20439;-70
2022/07/25 02:15:57;;;;;;;7.50;6.80;;;24.90;62.10;;;;;;4994860;28;20444;-70
2022/07/25 02:18:23;;;;;;;7.93;7.10;;;24.90;62.10;;;;;;4994322;28;20531;-69
2022/07/25 02:20:50;;;;;;;8.30;7.50;;;24.80;62.00;;;;;;4994481;28;20842;-70
2022/07/25 02:23:17;;;;;;;11.43;6.40;;;24.80;62.20;;;;;;4994732;28;20475;-70
2022/07/25 02:25:44;;;;;;;7.17;6.47;;;24.80;62.50;;;;;;4994601;28;20484;-70
2022/07/25 02:28:11;;;;;;;7.27;6.57;;;24.70;62.70;;;;;;4994286;28;20468;-69
2022/07/25 02:30:39;;;;;;;7.80;6.70;;;24.70;63.00;;;;;;4994602;28;20483;-70
2022/07/25 02:33:06;;;;;;;7.10;6.43;;;24.80;63.10;;;;;;4995171;28;20440;-70
2022/07/25 02:35:33;;;;;;;7.53;6.93;;;24.70;62.80;;;;;;4995109;28;20810;-70
2022/07/25 02:37:59;;;;;;;7.83;6.40;;;24.80;63.00;;;;;;4994719;28;20455;-69
2022/07/25 02:40:26;;;;;;;7.50;6.80;;;24.80;62.80;;;;;;4993486;28;20456;-70
2022/07/25 02:42:53;;;;;;;7.03;6.53;;;24.90;61.90;;;;;;4994166;28;20441;-70
2022/07/25 02:45:20;;;;;;;8.27;6.30;;;24.90;61.70;;;;;;4994382;28;20487;-70
2022/07/25 02:47:48;;;;;;;7.63;7.03;;;24.90;61.70;;;;;;4994245;28;20456;-69
2022/07/25 02:50:15;;;;;;;8.13;6.83;;;24.80;61.70;;;;;;4994492;28;20455;-70
2022/07/25 02:52:42;;;;;;;7.20;6.50;;;24.80;62.00;;;;;;4994519;28;20448;-70
2022/07/25 02:55:10;;;;;;;7.23;6.57;;;24.90;62.30;;;;;;4994342;28;20448;-70
2022/07/25 02:57:37;;;;;;;8.00;7.30;;;24.90;61.80;;;;;;4994311;28;20444;-70
2022/07/25 03:00:05;;;;;;;6.60;6.10;;;24.90;61.00;;;;;;4994212;28;20854;-70
2022/07/25 03:02:32;;;;;;;7.70;7.00;;;24.80;61.20;;;;;;4994290;28;20444;-70
2022/07/25 03:05:00;;;;;;;7.30;6.47;;;24.80;61.30;;;;;;4994146;28;20480;-70
2022/07/25 03:07:27;;;;;;;7.73;7.00;;;24.80;60.90;;;;;;4994230;28;20448;-70
2022/07/25 03:09:54;;;;;;;7.63;7.03;;;24.80;59.40;;;;;;4994016;28;20478;-70
2022/07/25 03:12:20;;;;;;;7.70;7.07;;;24.80;58.70;;;;;;4957817;28;1062728;-70
2022/07/25 03:14:47;;;;;;;7.63;6.80;;;24.70;58.90;;;;;;4994900;28;20208;-70
2022/07/25 03:17:14;;;;;;;7.90;7.13;;;24.70;59.20;;;;;;4994839;28;20451;-70
2022/07/25 03:19:40;;;;;;;7.50;6.90;;;24.70;58.90;;;;;;4994633;28;20464;-70
2022/07/25 03:22:09;;;;;;;7.23;6.53;;;24.70;59.50;;;;;;4994612;28;20476;-70
2022/07/25 03:24:35;;;;;;;7.33;6.57;;;24.70;60.20;;;;;;4994268;28;20488;-70
2022/07/25 03:27:02;;;;;;;7.23;6.60;;;24.70;60.60;;;;;;4994610;28;20460;-69
2022/07/25 03:29:29;;;;;;;7.50;6.43;;;24.60;60.70;;;;;;4994499;28;20468;-70
2022/07/25 03:31:56;;;;;;;7.40;6.33;;;24.60;60.90;;;;;;4995500;28;20445;-70
2022/07/25 03:34:22;;;;;;;7.57;6.87;;;24.60;61.30;;;;;;4994572;28;20527;-70
2022/07/25 03:36:49;;;;;;;8.03;7.33;;;24.60;61.90;;;;;;4994659;28;20464;-70
2022/07/25 03:39:18;;;;;;;8.03;7.23;;;24.60;62.30;;;;;;4994455;28;20475;-70
2022/07/25 03:41:45;;;;;;;7.47;6.87;;;24.50;62.40;;;;;;4994721;28;20448;-70
2022/07/25 03:44:12;;;;;;;9.57;6.90;;;24.50;62.50;;;;;;4994550;28;20487;-70
2022/07/25 03:46:38;;;;;;;7.13;6.47;;;24.50;62.40;;;;;;4994468;28;20444;-70
2022/07/25 03:49:05;;;;;;;8.80;6.70;;;24.50;62.50;;;;;;4994283;28;20479;-69
2022/07/25 03:51:32;;;;;;;7.63;6.93;;;24.40;62.60;;;;;;4993319;28;20459;-70
2022/07/25 03:54:02;;;;;;;7.33;6.73;;;24.30;62.70;;;;;;4994168;28;20838;-71
2022/07/25 03:56:32;;;;;;;8.27;7.47;;;24.30;62.90;;;;;;4994220;28;20483;-70
2022/07/25 03:58:59;;;;;;;7.30;6.53;;;24.30;63.10;;;;;;4994836;28;20464;-70
2022/07/25 04:01:26;;;;;;;8.07;6.63;;;24.30;63.40;;;;;;4994815;28;20455;-71
2022/07/25 04:03:53;;;;;;;7.50;6.90;;;24.30;63.40;;;;;;4994802;28;20440;-70
2022/07/25 04:06:19;;;;;;;8.60;7.77;;;24.20;63.40;;;;;;4994289;28;21008;-70
2022/07/25 04:08:46;;;;;;;7.80;7.17;;;24.30;61.90;;;;;;4994066;28;20483;-70
2022/07/25 04:11:13;;;;;;;12.43;6.60;;;24.30;61.30;;;;;;4993855;28;20452;-70
2022/07/25 04:13:41;;;;;;;8.30;7.50;;;24.40;59.80;;;;;;4994722;28;20806;-69
2022/07/25 04:16:08;;;;;;;7.30;6.70;;;24.40;60.20;;;;;;4994051;28;20795;-70
2022/07/25 04:18:35;;;;;;;8.60;6.37;;;24.40;59.70;;;;;;4993770;28;20476;-70
2022/07/25 04:21:02;;;;;;;9.70;7.57;;;24.40;59.40;;;;;;4993661;28;20452;-70
2022/07/25 04:23:30;;;;;;;7.77;7.07;;;24.40;58.50;;;;;;4993845;28;20452;-70
2022/07/25 04:25:57;;;;;;;7.07;6.37;;;24.40;58.60;;;;;;4993828;28;20502;-70
2022/07/25 04:28:25;;;;;;;7.37;6.77;;;24.40;58.20;;;;;;4993700;28;20476;-70
2022/07/25 04:30:53;;;;;;;8.07;7.37;;;24.40;58.00;;;;;;4993890;28;20460;-70
2022/07/25 04:33:20;;;;;;;6.80;6.20;;;24.40;58.40;;;;;;4993489;28;20954;-70
2022/07/25 04:35:48;;;;;;;7.20;6.60;;;24.40;58.00;;;;;;4993858;28;20471;-70
2022/07/25 04:38:14;;;;;;;8.70;6.70;;;24.40;58.10;;;;;;4993724;28;20471;-70
2022/07/25 04:40:41;;;;;;;7.00;6.50;;;24.50;58.20;;;;;;4993678;28;20549;-70
2022/07/25 04:43:08;;;;;;;7.50;6.80;;;24.50;57.80;;;;;;4993757;28;20451;-70
2022/07/25 04:45:36;;;;;;;7.17;6.40;;;24.50;58.20;;;;;;4994190;28;20483;-70
2022/07/25 04:48:04;;;;;;;6.70;6.20;;;24.50;58.50;;;;;;4993424;28;20829;-69
2022/07/25 04:50:31;;;;;;;7.20;6.50;;;24.50;58.00;;;;;;4994022;28;20542;-70
2022/07/25 04:52:58;;;;;;;6.80;6.10;;;24.60;58.30;;;;;;4993912;28;20440;-70
2022/07/25 04:55:25;;;;;;;7.43;6.70;;;24.70;58.90;;;;;;4993936;28;20449;-70
2022/07/25 04:57:51;;;;;;;8.10;6.40;;;24.70;58.90;;;;;;4993754;28;20452;-70
2022/07/25 05:00:18;;;;;;;6.77;6.20;;;24.70;59.00;;;;;;4993735;28;20458;-70
2022/07/25 05:02:45;;;;;;;7.33;6.73;;;24.80;58.90;;;;;;4994773;28;20452;-70
2022/07/25 05:05:13;;;;;;;7.10;6.40;;;24.80;58.80;;;;;;4996912;28;20503;-70
2022/07/25 05:07:40;;;;;;;7.50;6.70;;;24.90;59.20;;;;;;4997045;28;20814;-70
2022/07/25 05:10:07;;;;;;;7.83;7.07;;;24.90;59.60;;;;;;4996722;28;20479;-70
2022/07/25 05:12:34;;;;;;;7.87;7.07;;;25.00;60.00;;;;;;4996609;28;20464;-70
2022/07/25 05:15:01;;;;;;;7.50;6.80;;;25.00;60.80;;;;;;4996668;28;20455;-70
2022/07/25 05:17:28;;;;;;;7.73;6.80;;;25.10;61.10;;;;;;4996809;28;20448;-70
2022/07/25 05:19:55;;;;;;;7.57;6.60;;;25.10;61.60;;;;;;4996649;28;20475;-70
2022/07/25 05:22:23;;;;;;;7.17;6.47;;;25.20;61.80;;;;;;4996728;28;20491;-70
2022/07/25 05:24:50;;;;;;;7.20;6.50;;;25.20;62.30;;;;;;4996603;28;20460;-70
2022/07/25 05:27:16;;;;;;;8.83;7.93;;;25.30;62.60;;;;;;4996510;28;20444;-69
2022/07/25 05:29:43;;;;;;;8.50;7.53;;;25.30;62.70;;;;;;4996452;28;20475;-70
2022/07/25 05:32:10;;;;;;;8.20;7.50;;;25.40;62.90;;;;;;4996506;28;20444;-70
2022/07/25 05:34:37;;;;;;;8.90;8.20;;;25.40;62.80;;;;;;4996580;28;20448;-70
2022/07/25 05:37:03;;;;;;;9.13;7.50;;;25.40;63.00;;;;;;4996433;28;20455;-70
2022/07/25 05:39:31;;;;;;;9.40;8.43;;;25.40;63.30;;;;;;4996498;28;20475;-69
2022/07/25 05:41:58;;;;;;;9.53;8.50;;;25.40;63.00;;;;;;4996352;28;20460;-70
2022/07/25 05:44:25;;;;;;;9.10;8.27;;;25.40;64.10;;;;;;4995981;28;20448;-70
2022/07/25 05:46:52;;;;;;;9.50;8.60;;;25.50;64.70;;;;;;4996355;28;20490;-70
2022/07/25 05:49:18;;;;;;;8.67;7.90;;;25.50;65.00;;;;;;4996231;28;20472;-70
2022/07/25 05:51:45;;;;;;;7.77;6.80;;;25.60;65.10;;;;;;4995948;28;20941;-70
2022/07/25 05:54:12;;;;;;;7.60;6.90;;;25.60;63.70;;;;;;4996334;28;20448;-70
2022/07/25 05:56:40;;;;;;;7.00;6.43;;;25.70;61.50;;;;;;4996027;28;20452;-70
2022/07/25 05:59:07;;;;;;;9.30;6.73;;;25.80;61.00;;;;;;4996236;28;20461;-70
2022/07/25 06:01:34;;;;;;;7.17;6.43;;;25.90;60.60;;;;;;4996007;28;20448;-70
2022/07/25 06:04:01;;;;;;;7.73;6.90;;;26.00;60.60;;;;;;4995644;28;20961;-70
2022/07/25 06:06:31;;;;;;;7.53;6.43;;;26.10;59.40;;;;;;4995896;28;20484;-70
2022/07/25 06:08:58;;;;;;;7.70;5.83;;;26.20;58.30;;;;;;4995818;28;20483;-70
2022/07/25 06:11:26;;;;;;;7.03;5.83;;;26.30;57.90;;;;;;4995714;28;20463;-70
2022/07/25 06:13:54;;;;;;;6.47;5.93;;;26.40;57.50;;;;;;4994950;28;20456;-71
2022/07/25 06:16:21;;;;;;;9.77;6.53;;;26.60;56.40;;;;;;4995719;28;20448;-71
2022/07/25 06:18:48;;;;;;;6.73;6.13;;;26.70;55.30;;;;;;4995549;28;20464;-70
2022/07/25 06:21:14;;;;;;;6.80;5.93;;;26.80;54.30;;;;;;4995439;28;20464;-70
2022/07/25 06:23:41;;;;;;;7.23;6.53;;;26.90;52.80;;;;;;4995651;28;20429;-70
2022/07/25 06:26:09;;;;;;;7.20;6.50;;;27.00;52.30;;;;;;4995498;28;20467;-70
2022/07/25 06:28:36;;;;;;;7.20;6.60;;;27.10;52.10;;;;;;4995472;28;20475;-70
2022/07/25 06:31:04;;;;;;;8.57;6.57;;;27.20;52.00;;;;;;4995836;28;20440;-70
2022/07/25 06:33:31;;;;;;;7.20;6.30;;;27.30;51.20;;;;;;4995517;28;20437;-70
2022/07/25 06:35:58;;;;;;;7.20;6.57;;;27.30;51.40;;;;;;4995398;28;20776;-70
2022/07/25 06:38:24;;;;;;;6.67;6.07;;;27.30;51.40;;;;;;4995418;28;20494;-70
2022/07/25 06:40:51;;;;;;;8.03;6.13;;;27.40;51.70;;;;;;4995335;28;20455;-70
2022/07/25 06:43:18;;;;;;;6.60;6.10;;;27.40;51.50;;;;;;4995452;28;20453;-70
2022/07/25 06:45:46;;;;;;;6.93;6.20;;;27.50;51.50;;;;;;4995059;28;21031;-70
2022/07/25 06:48:14;;;;;;;7.23;6.37;;;27.60;51.70;;;;;;4994875;28;20497;-69
2022/07/25 06:50:41;;;;;;;7.90;6.60;;;27.70;51.40;;;;;;4994862;28;21004;-71
2022/07/25 06:53:08;;;;;;;7.10;6.50;;;27.80;50.90;;;;;;4994901;28;20775;-70
2022/07/25 06:55:35;;;;;;;12.00;6.80;;;28.00;50.70;;;;;;4994975;28;20444;-70
2022/07/25 06:58:02;;;;;;;7.27;6.27;;;28.20;50.50;;;;;;4994953;28;20471;-70
2022/07/25 07:00:29;;;;;;;6.40;5.90;;;28.30;50.20;;;;;;4995039;28;20448;-68
2022/07/25 07:02:59;;;;;;;7.80;7.10;;;28.40;50.10;;;;;;4995075;28;20444;-70
2022/07/25 07:05:29;;;;;;;6.13;5.60;;;28.50;49.80;;;;;;4994870;28;20440;-70
2022/07/25 07:07:56;;;;;;;8.63;6.37;;;28.60;49.60;;;;;;4994901;28;20444;-70
2022/07/25 07:10:24;;;;;;;8.90;6.70;;;28.80;49.40;;;;;;4994817;28;20452;-70
2022/07/25 07:13:01;;;;;;;8.10;7.30;;;29.00;49.40;;;;;;4994740;28;20456;-70
2022/07/25 07:15:28;;;;;;;7.73;6.33;;;29.10;50.00;;;;;;4995027;28;20432;-70
2022/07/25 07:17:55;;;;;;;6.83;6.13;;;29.20;49.30;;;;;;4994884;28;20446;-70
2022/07/25 07:20:22;;;;;;;6.97;6.37;;;29.30;48.90;;;;;;4995041;28;20443;-70
2022/07/25 07:22:50;;;;;;;8.00;7.20;;;29.50;49.60;;;;;;4994887;28;20464;-70
2022/07/25 07:25:19;;;;;;;8.53;6.90;;;29.60;48.70;;;;;;4994121;28;20456;-70
2022/07/25 07:27:47;;;;;;;7.30;6.07;;;29.70;47.50;;;;;;4994248;28;20898;-71
2022/07/25 07:30:14;;;;;;;11.27;6.17;;;29.90;46.70;;;;;;4994419;28;20554;-70
2022/07/25 07:32:41;;;;;;;8.67;7.03;;;30.10;46.10;;;;;;4994544;28;20444;-70
2022/07/25 07:35:10;;;;;;;11.80;6.60;;;30.20;46.70;;;;;;4994558;28;20459;-70
2022/07/25 07:37:36;;;;;;;10.30;6.23;;;30.20;46.30;;;;;;4994401;28;20563;-67
2022/07/25 07:40:06;;;;;;;8.63;7.00;;;30.20;47.80;;;;;;4994276;28;20468;-67
2022/07/25 07:42:38;;;;;;;10.23;6.40;;;30.00;46.10;;;;;;4994353;28;20452;-67
2022/07/25 07:45:11;;;;;;;9.27;6.67;;;29.80;47.90;;;;;;4994289;28;20443;-67
2022/07/25 07:47:37;;;;;;;9.80;6.80;;;29.50;47.60;;;;;;4994226;28;20472;-67
2022/07/25 07:50:05;;;;;;;10.30;6.47;;;29.30;48.20;;;;;;4994141;28;20819;-67
2022/07/25 07:52:32;;;;;;;7.33;6.63;;;29.10;48.60;;;;;;4994488;28;20440;-67
2022/07/25 07:57:44;;;;;;;8.87;7.10;;;28.80;48.40;;;;;;4994452;28;20436;-67
2022/07/25 08:00:11;;;;;;;6.70;6.07;;;28.60;47.40;;;;;;4994153;28;20471;-67
2022/07/25 08:02:42;;;;;;;7.67;6.97;;;28.50;48.20;;;;;;4994304;28;20463;-67
2022/07/25 08:05:09;;;;;;;7.30;6.70;;;28.40;49.00;;;;;;4994314;28;20440;-67
2022/07/25 08:07:36;;;;;;;7.17;6.50;;;28.20;47.90;;;;;;4994096;28;20479;-67
2022/07/25 08:10:04;;;;;;;10.40;6.30;;;28.20;49.70;;;;;;4993686;28;21012;-67
2022/07/25 08:12:30;;;;;;;12.17;6.67;;;28.20;49.20;;;;;;4993708;28;20998;-67
2022/07/25 08:14:59;;;;;;;10.67;7.13;;;28.20;49.00;;;;;;4994174;28;20448;-67
2022/07/25 08:17:25;;;;;;;6.87;6.00;;;28.10;49.10;;;;;;4994073;28;20459;-67
2022/07/25 08:19:52;;;;;;;10.47;6.50;;;28.10;48.70;;;;;;4993574;28;20472;-67
2022/07/25 08:22:19;;;;;;;8.27;6.90;;;28.00;48.90;;;;;;4994026;28;20451;-67
2022/07/25 08:24:45;;;;;;;6.63;6.03;;;27.90;48.10;;;;;;4993880;28;20456;-67
2022/07/25 08:27:12;;;;;;;9.20;6.97;;;27.80;49.00;;;;;;4993384;28;21015;-67
2022/07/25 08:29:39;;;;;;;6.97;6.27;;;27.80;49.80;;;;;;4994110;28;20474;-67
2022/07/25 08:32:07;;;;;;;7.43;6.43;;;27.70;50.40;;;;;;4993879;28;20455;-67
2022/07/25 08:34:34;;;;;;;7.23;6.60;;;27.60;50.50;;;;;;4993922;28;20459;-67
2022/07/25 08:37:01;;;;;;;6.53;5.93;;;27.50;50.40;;;;;;4993971;28;20436;-67
2022/07/25 08:39:28;;;;;;;7.10;6.40;;;27.50;50.20;;;;;;4997593;28;20472;-67
2022/07/25 08:41:56;;;;;;;7.90;7.07;;;27.30;50.30;;;;;;4997592;28;20452;-67
2022/07/25 08:44:26;;;;;;;7.00;6.40;;;27.30;50.90;;;;;;4997691;28;20454;-67
2022/07/25 08:46:53;;;;;;;7.13;6.37;;;27.20;51.60;;;;;;4997340;28;20464;-67
2022/07/25 08:49:21;;;;;;;9.50;6.63;;;27.10;52.60;;;;;;4997206;28;20849;-67
2022/07/25 08:51:49;;;;;;;9.73;6.07;;;27.20;51.70;;;;;;4997495;28;20499;-67
2022/07/25 08:54:16;;;;;;;15.23;7.33;;;27.30;51.90;;;;;;4997016;28;20964;-67
2022/07/25 08:56:43;;;;;;;12.63;6.47;;;27.50;52.40;;;;;;4996943;28;20906;-67
2022/07/25 08:59:10;;;;;;;6.67;6.07;;;27.60;51.40;;;;;;4997218;28;20522;-67
2022/07/25 09:01:39;;;;;;;6.30;5.70;;;27.80;51.30;;;;;;4996860;28;20458;-67
2022/07/25 09:04:08;;;;;;;8.77;7.10;;;28.10;51.20;;;;;;4996757;28;20456;-67
2022/07/25 09:06:36;;;;;;;6.97;6.07;;;28.30;50.60;;;;;;4996991;28;20488;-67
2022/07/25 09:09:04;;;;;;;6.57;5.97;;;28.60;51.20;;;;;;4996624;28;21074;-67
2022/07/25 09:11:32;;;;;;;7.67;6.83;;;28.80;49.30;;;;;;4997166;28;20463;-70
2022/07/25 09:14:00;;;;;;;7.23;6.53;;;29.00;49.00;;;;;;4997095;28;20448;-71
2022/07/25 09:16:31;;;;;;;7.03;6.43;;;29.20;48.90;;;;;;4997168;28;20502;-71
2022/07/25 09:19:13;;;;;;;7.13;6.43;;;29.30;49.30;;;;;;4996739;28;20468;-70
2022/07/25 09:21:43;;;;;;;8.87;6.37;;;29.40;48.10;;;;;;4996622;28;20467;-70
2022/07/25 09:24:11;;;;;;;10.43;6.80;;;29.50;47.30;;;;;;4996668;28;20451;-70
2022/07/25 09:26:49;;;;;;;6.03;5.53;;;29.50;46.90;;;;;;4996589;28;20825;-70
2022/07/25 09:29:21;;;;;;;8.77;5.57;;;29.50;47.50;;;;;;4996585;28;20559;-70
2022/07/25 09:31:48;;;;;;;6.30;5.73;;;29.50;46.50;;;;;;4997518;28;20437;-70
2022/07/25 09:34:28;;;;;;;6.10;5.23;;;29.30;46.50;;;;;;4996516;28;20479;-70
2022/07/25 09:36:57;;;;;;;5.13;4.63;;;29.40;46.90;;;;;;4996525;28;20424;-71
2022/07/25 09:39:34;;;;;;;5.90;5.40;;;29.50;48.00;;;;;;4996101;28;20993;-70
2022/07/25 09:42:01;;;;;;;5.10;4.70;;;29.40;45.20;;;;;;4996470;28;20436;-71
2022/07/25 09:44:29;;;;;;;6.00;4.67;;;29.20;45.30;;;;;;4996040;28;20942;-71
2022/07/25 09:46:56;;;;;;;5.70;4.67;;;28.90;45.90;;;;;;4996147;28;20507;-70
2022/07/25 09:49:23;;;;;;;4.90;4.00;;;28.50;46.00;;;;;;4995865;28;20494;-70
2022/07/25 09:51:50;;;;;;;5.40;4.17;;;28.20;46.40;;;;;;4996013;28;20448;-70
2022/07/25 09:54:19;;;;;;;4.20;3.77;;;27.90;46.20;;;;;;4996079;28;20474;-70
2022/07/25 09:56:45;;;;;;;3.60;3.30;;;27.70;46.80;;;;;;4996148;28;20440;-70
2022/07/25 09:59:12;;;;;;;5.03;3.30;;;27.70;47.10;;;;;;4996130;28;20563;-70
2022/07/25 10:01:49;;;;;;;3.80;3.50;;;27.70;48.00;;;;;;4996208;28;20448;-70
2022/07/25 10:04:21;;;;;;;3.30;3.00;;;27.70;48.00;;;;;;4996033;28;20440;-70
2022/07/25 10:06:57;;;;;;;4.93;3.50;;;27.60;46.00;;;;;;4995970;28;20510;-71
2022/07/25 10:09:25;;;;;;;3.10;2.90;;;27.50;45.90;;;;;;4995919;28;20472;-70
2022/07/25 10:12:05;;;;;;;4.03;3.47;;;27.40;46.40;;;;;;4995754;28;20486;-70
2022/07/25 10:14:33;;;;;;;3.93;3.50;;;27.30;46.90;;;;;;4995823;28;20479;-71
2022/07/25 10:17:00;;;;;;;3.27;2.80;;;27.30;46.60;;;;;;4995856;28;20480;-71
2022/07/25 10:19:41;;;;;;;3.67;2.90;;;27.40;47.60;;;;;;4995599;28;20496;-70
2022/07/25 10:22:08;;;;;;;3.63;3.03;;;27.40;46.80;;;;;;4995885;28;20487;-70
2022/07/25 10:24:38;;;;;;;5.87;3.13;;;27.50;46.40;;;;;;4995415;28;20983;-70
2022/07/25 10:27:10;;;;;;;4.00;2.30;;;27.70;45.60;;;;;;4995446;28;20484;-70
2022/07/25 10:29:37;;;;;;;5.10;3.20;;;27.80;45.40;;;;;;4995610;28;20472;-70
2022/07/25 10:32:08;;;;;;;7.47;2.97;;;28.00;46.00;;;;;;4996088;28;20444;-70
2022/07/25 10:34:35;;;;;;;3.70;3.23;;;28.20;46.10;;;;;;4995970;28;20813;-70
2022/07/25 10:37:14;;;;;;;6.00;3.33;;;28.60;46.00;;;;;;4996628;28;20444;-71
2022/07/25 10:39:45;;;;;;;3.50;3.30;;;29.20;46.00;;;;;;4996620;28;20483;-70
2022/07/25 10:42:16;;;;;;;3.80;3.50;;;29.80;42.40;;;;;;4995716;28;20437;-70
2022/07/25 10:44:45;;;;;;;4.40;4.00;;;30.30;41.40;;;;;;4995262;28;20453;-71
2022/07/25 10:47:15;;;;;;;3.63;3.33;;;30.70;39.70;;;;;;4994851;28;20526;-71
2022/07/25 10:49:44;;;;;;;4.20;3.80;;;30.80;39.60;;;;;;4995098;28;20484;-70
2022/07/25 10:52:16;;;;;;;3.70;3.47;;;30.70;39.70;;;;;;4995231;28;20452;-70
2022/07/25 10:54:53;;;;;;;3.63;3.30;;;30.30;39.70;;;;;;4995340;28;20448;-71
2022/07/25 10:57:21;;;;;;;5.13;3.70;;;30.30;42.50;;;;;;4994926;28;20429;-70
2022/07/25 10:59:48;;;;;;;4.20;3.90;;;30.40;40.90;;;;;;4994623;28;20833;-70
2022/07/25 11:02:16;;;;;;;4.53;3.30;;;30.40;39.90;;;;;;4994855;28;20449;-71
2022/07/25 11:04:43;;;;;;;3.87;3.57;;;30.40;41.70;;;;;;4994878;28;20448;-71
2022/07/25 11:07:11;;;;;;;7.80;4.10;;;30.40;41.70;;;;;;4994806;28;20563;-71
2022/07/25 11:09:39;;;;;;;3.60;3.30;;;30.40;40.60;;;;;;4994762;28;20468;-70
2022/07/25 11:12:07;;;;;;;4.93;4.13;;;30.40;41.30;;;;;;4994601;28;20468;-70
2022/07/25 11:14:38;;;;;;;4.30;3.90;;;30.50;40.40;;;;;;4994842;28;20458;-71
2022/07/25 11:17:14;;;;;;;4.23;3.83;;;30.60;38.50;;;;;;4994460;28;20930;-71
2022/07/25 11:19:42;;;;;;;5.87;3.70;;;30.50;40.10;;;;;;4994564;28;20495;-70
2022/07/25 11:22:10;;;;;;;4.10;3.80;;;30.50;40.40;;;;;;4994695;28;20456;-70
2022/07/25 11:24:39;;;;;;;4.77;4.37;;;30.70;41.90;;;;;;4994573;28;20459;-71
2022/07/25 11:27:09;;;;;;;6.20;3.57;;;30.70;41.30;;;;;;4994672;28;20488;-70
2022/07/25 11:29:37;;;;;;;8.03;3.60;;;30.90;40.00;;;;;;4994425;28;20475;-70
2022/07/25 11:32:06;;;;;;;6.27;3.67;;;31.50;39.30;;;;;;4994563;28;20460;-70
2022/07/25 11:34:36;;;;;;;3.60;3.30;;;32.10;37.40;;;;;;4995055;28;20451;-71
2022/07/25 11:37:05;;;;;;;3.57;3.23;;;32.40;36.40;;;;;;4994416;28;20443;-71
2022/07/25 11:39:34;;;;;;;4.13;3.83;;;32.30;38.20;;;;;;4994393;28;20467;-70
2022/07/25 11:42:02;;;;;;;3.73;3.43;;;32.40;38.70;;;;;;4994630;28;20455;-70
2022/07/25 11:44:39;;;;;;;13.63;4.53;;;32.60;38.80;;;;;;4994546;28;20443;-71
2022/07/25 11:47:08;;;;;;;5.00;3.70;;;33.20;37.00;;;;;;4993972;28;20996;-71
2022/07/25 11:49:44;;;;;;;4.63;3.73;;;33.80;35.60;;;;;;4994288;28;20558;-70
2022/07/25 11:52:22;;;;;;;3.70;3.40;;;34.20;34.50;;;;;;4994435;28;20897;-70
2022/07/25 11:54:57;;;;;;;4.77;3.70;;;34.80;33.50;;;;;;4994287;28;20435;-71
2022/07/25 11:57:25;;;;;;;3.93;3.60;;;34.60;33.60;;;;;;4994193;28;20435;-70
2022/07/25 11:59:54;;;;;;;6.63;3.20;;;34.20;33.50;;;;;;4994123;28;20467;-70
2022/07/25 12:02:23;;;;;;;7.23;3.80;;;33.80;35.70;;;;;;4993848;28;20815;-70
2022/07/25 12:04:54;;;;;;;3.97;3.57;;;33.10;37.00;;;;;;4994065;28;20463;-71
2022/07/25 12:07:21;;;;;;;6.20;3.57;;;32.40;38.00;;;;;;4993769;28;20877;-71
2022/07/25 12:09:56;;;;;;;5.70;3.30;;;31.80;39.40;;;;;;4993989;28;20495;-70
2022/07/25 12:12:23;;;;;;;9.00;3.30;;;31.30;40.90;;;;;;4994598;28;20462;-70
2022/07/25 12:14:51;;;;;;;3.73;3.43;;;31.10;41.50;;;;;;4997760;28;20950;-71
2022/07/25 12:17:19;;;;;;;9.80;3.73;;;30.90;41.70;;;;;;4998051;28;20448;-71
2022/07/25 12:19:46;;;;;;;3.10;2.90;;;30.70;42.70;;;;;;4997508;28;20478;-70
2022/07/25 12:22:13;;;;;;;3.30;2.87;;;30.90;41.50;;;;;;4997483;28;20555;-70
2022/07/25 12:24:40;;;;;;;5.73;3.00;;;31.10;42.70;;;;;;4998061;28;20455;-72
2022/07/25 12:27:07;;;;;;;7.30;3.30;;;31.80;42.70;;;;;;4997658;28;20474;-70
2022/07/25 12:29:34;;;;;;;4.13;3.20;;;32.60;41.40;;;;;;4997901;28;20478;-70
2022/07/25 12:32:00;;;;;;;6.03;2.57;;;32.60;39.70;;;;;;4997827;28;20451;-70
2022/07/25 12:34:28;;;;;;;5.40;2.90;;;32.70;39.40;;;;;;4997800;28;20439;-71
2022/07/25 12:36:55;;;;;;;4.73;2.70;;;33.10;38.20;;;;;;4997606;28;20447;-71
2022/07/25 12:39:23;;;;;;;5.23;3.20;;;33.40;38.90;;;;;;4997566;28;20471;-70
2022/07/25 12:41:50;;;;;;;4.90;2.83;;;33.40;37.90;;;;;;4997545;28;20461;-71
2022/07/25 12:44:16;;;;;;;7.83;3.10;;;33.60;38.80;;;;;;4997333;28;20474;-70
2022/07/25 12:46:43;;;;;;;5.40;2.87;;;33.70;37.70;;;;;;4997536;28;20451;-71
2022/07/25 12:49:10;;;;;;;3.03;2.50;;;33.40;37.40;;;;;;4997307;28;20495;-70
2022/07/25 12:51:38;;;;;;;4.43;2.57;;;33.30;38.10;;;;;;4997720;28;20451;-71